Astoria, Oregon
Current Conditions -  °F | °C
As of 11:55 PM on Friday 31 Oct 2014 (Local Time) from KAST Reporting Station
Clear Clear  
Wind Chill: 39°   Ceiling: Unl
Heat Index: 42°   Visibility: 10mi
Dew Point: 40°   Wind: 5mph
Humidity: 92%   Direction: 110°ESE
Pressure: 29.86"   Gusts: NA
Location:  46.19°N, 123.83°W
Report Text: KAST 010655Z AUTO 11004KT 10SM CLR 06/04 A2986 RMK AO2 SLP110 T00560044
Loading
Personal Weather Stations






























Interactive Weather Map
Tropical Storm Tracking
New forecast layout! Learn more

10-Day Weather Forecast

Advertisements
Track Severe Weather on mobile